Time;durP1;ratioP1;P1;durP2;ratioP2;P2;SDS_P1;SDS_P2;PMS_P1;PMS_P2;Temp;Humidity;BMP_temperature;BMP_pressure;BME280_temperature;BME280_humidity;BME280_pressure;Samples;Min_cycle;Max_cycle;Signal;HPM_P1;HPM_P2
2022/09/13 00:00:59;;;;;;;1.90;1.25;;;;;;;15.03;100.00;98812.13;1608810;87;21084;-59
2022/09/13 00:03:26;;;;;;;1.07;0.90;;;;;;;15.07;100.00;98806.50;1588229;89;21629;-59
2022/09/13 00:05:53;;;;;;;1.02;1.02;;;;;;;15.13;100.00;98798.09;1625688;86;21430;-59
2022/09/13 00:08:20;;;;;;;1.05;1.00;;;;;;;15.15;100.00;98794.02;1600029;88;21832;-59
2022/09/13 00:10:47;;;;;;;2.02;1.00;;;;;;;15.16;100.00;98790.39;1603050;88;21724;-59
2022/09/13 00:13:14;;;;;;;;;;;;;;;15.12;100.00;98785.80;1592804;87;21534;-60
2022/09/13 00:15:48;;;;;;;1.37;1.27;;;;;;;15.04;100.00;98804.08;1600018;88;20471;-59
2022/09/13 00:18:16;;;;;;;1.25;1.12;;;;;;;15.07;100.00;98789.75;1594056;87;21535;-59
2022/09/13 00:20:42;;;;;;;1.50;1.40;;;;;;;15.09;100.00;98790.02;1593082;88;21744;-59
2022/09/13 00:23:09;;;;;;;1.40;1.30;;;;;;;15.08;100.00;98784.35;1593172;87;21518;-59
2022/09/13 00:25:37;;;;;;;1.82;1.40;;;;;;;15.03;100.00;98789.17;1602579;87;21461;-60
2022/09/13 00:28:04;;;;;;;1.52;1.42;;;;;;;15.04;100.00;98795.30;1624995;86;21477;-59
2022/09/13 00:30:32;;;;;;;1.32;1.22;;;;;;;15.08;100.00;98794.11;1625877;86;21570;-59
2022/09/13 00:33:03;;;;;;;1.52;1.30;;;;;;;15.15;100.00;98788.23;1598338;87;21756;-59
2022/09/13 00:35:27;;;;;;;1.50;1.40;;;;;;;15.21;100.00;98787.41;1600072;87;21664;-59
2022/09/13 00:37:54;;;;;;;1.65;1.55;;;;;;;15.23;100.00;98781.03;1595154;87;21018;-59
2022/09/13 00:40:21;;;;;;;2.55;1.80;;;;;;;15.26;100.00;98789.24;1608776;87;21543;-61
2022/09/13 00:42:47;;;;;;;2.42;1.72;;;;;;;15.24;100.00;98785.38;1595451;87;21577;-59
2022/09/13 00:45:16;;;;;;;1.90;1.80;;;;;;;15.23;100.00;98784.17;1608203;87;21848;-59
2022/09/13 00:48:00;;;;;;;1.70;1.60;;;;;;;15.22;100.00;98790.41;1597813;87;21026;-59
2022/09/13 00:50:37;;;;;;;4.42;2.08;;;;;;;15.26;100.00;98786.11;1606787;87;21115;-59
2022/09/13 00:53:15;;;;;;;2.17;1.92;;;;;;;15.34;100.00;98786.36;1607404;87;28707;-59
2022/09/13 00:55:53;;;;;;;2.45;2.20;;;;;;;15.34;100.00;98778.90;1603731;87;21510;-59
2022/09/13 00:58:33;;;;;;;3.15;2.40;;;;;;;15.38;100.00;98780.34;1602999;87;21995;-59
2022/09/13 01:01:00;;;;;;;4.05;2.25;;;;;;;15.38;100.00;98778.53;1594479;87;21668;-58
2022/09/13 01:03:29;;;;;;;2.17;1.98;;;;;;;15.37;100.00;98776.03;1587390;87;21093;-58
2022/09/13 01:06:03;;;;;;;2.98;2.50;;;;;;;15.37;100.00;98774.22;1609031;87;21022;-58
2022/09/13 01:08:31;;;;;;;3.72;2.42;;;;;;;15.37;100.00;98772.06;1621718;86;21616;-58
2022/09/13 01:11:00;;;;;;;3.67;2.47;;;;;;;15.36;100.00;98770.35;1594898;88;21807;-60
2022/09/13 01:13:31;;;;;;;3.37;2.72;;;;;;;15.40;100.00;98773.61;1593078;88;21594;-58
2022/09/13 01:15:59;;;;;;;4.95;2.52;;;;;;;15.42;100.00;98769.88;1595378;88;21578;-58
2022/09/13 01:18:26;;;;;;;2.90;2.70;;;;;;;15.45;100.00;98768.33;1588986;89;21078;-58
2022/09/13 01:21:41;;;;;;;3.20;2.58;;;;;;;15.43;100.00;98768.93;1588310;88;21555;-58
2022/09/13 01:24:57;;;;;;;4.15;2.75;;;;;;;15.40;100.00;98763.86;1624756;86;21451;-59
2022/09/13 01:28:00;;;;;;;3.80;2.45;;;;;;;15.33;100.00;98767.47;1595440;88;21060;-58
2022/09/13 01:30:58;;;;;;;3.12;2.83;;;;;;;15.24;100.00;98769.95;1595368;88;21605;-58
2022/09/13 01:33:40;;;;;;;4.70;2.92;;;;;;;15.27;100.00;98763.11;1621248;86;21657;-59
2022/09/13 01:36:43;;;;;;;2.83;2.62;;;;;;;15.25;100.00;98763.22;1604979;87;21550;-58
2022/09/13 01:39:19;;;;;;;7.10;2.52;;;;;;;15.33;100.00;98765.28;1588193;87;21844;-58
2022/09/13 01:42:17;;;;;;;3.42;2.70;;;;;;;15.33;100.00;98764.82;1597057;88;21662;-58
2022/09/13 01:44:58;;;;;;;3.13;2.83;;;;;;;15.35;100.00;98761.58;1593319;87;21472;-58
2022/09/13 01:47:46;;;;;;;3.05;2.75;;;;;;;15.34;100.00;98768.30;1597850;88;21492;-57
2022/09/13 01:50:36;;;;;;;2.37;2.17;;;;;;;15.35;100.00;98768.20;1594767;89;21038;-57
2022/09/13 01:53:38;;;;;;;3.15;2.55;;;;;;;15.41;100.00;98771.31;1590887;87;21880;-57
2022/09/13 01:56:33;;;;;;;2.55;2.33;;;;;;;15.44;100.00;98763.14;1576085;89;21440;-58
2022/09/13 01:59:05;;;;;;;4.58;2.27;;;;;;;15.46;100.00;98758.08;1563991;88;21602;-58
2022/09/13 02:01:43;;;;;;;2.58;2.15;;;;;;;15.49;100.00;98757.86;1602836;88;21581;-57
2022/09/13 02:04:17;;;;;;;3.35;2.05;;;;;;;15.51;100.00;98748.47;1598545;87;21586;-59
2022/09/13 02:06:54;;;;;;;2.42;2.00;;;;;;;15.50;100.00;98750.73;1600503;87;21763;-57
2022/09/13 02:09:24;;;;;;;2.60;2.40;;;;;;;15.47;100.00;98757.13;1600548;88;21516;-58
2022/09/13 02:11:58;;;;;;;2.75;2.27;;;;;;;15.54;100.00;98753.55;1602603;88;21535;-58
2022/09/13 02:14:38;;;;;;;2.30;2.10;;;;;;;15.56;100.00;98755.59;1605810;87;21506;-58
2022/09/13 02:17:13;;;;;;;2.90;2.47;;;;;;;15.53;100.00;98754.00;1629178;86;21563;-58
2022/09/13 02:20:09;;;;;;;2.60;2.40;;;;;;;15.57;100.00;98751.47;1627956;86;21578;-58
2022/09/13 02:22:40;;;;;;;2.27;2.08;;;;;;;15.62;100.00;98757.75;1595692;88;21521;-58
2022/09/13 02:25:11;;;;;;;3.02;2.72;;;;;;;15.60;100.00;98750.41;1604935;87;22042;-58
2022/09/13 02:27:38;;;;;;;2.50;2.10;;;;;;;15.65;100.00;98754.88;1600505;88;21653;-58
2022/09/13 02:30:07;;;;;;;2.62;2.20;;;;;;;15.70;100.00;98753.18;1568726;89;21511;-58
2022/09/13 02:32:40;;;;;;;2.15;2.00;;;;;;;15.74;100.00;98751.52;1608669;87;21812;-58
2022/09/13 02:35:20;;;;;;;2.22;2.02;;;;;;;15.82;100.00;98751.40;1605014;87;21621;-57
2022/09/13 02:37:51;;;;;;;3.40;2.30;;;;;;;15.81;100.00;98751.89;1598068;88;21471;-58
2022/09/13 02:40:21;;;;;;;2.10;2.00;;;;;;;15.82;100.00;98746.93;1597369;88;21599;-58
2022/09/13 02:42:59;;;;;;;2.95;2.58;;;;;;;15.84;100.00;98750.33;1597616;88;21504;-57
2022/09/13 02:45:31;;;;;;;2.25;2.15;;;;;;;15.82;100.00;98746.93;1598892;87;21742;-57
2022/09/13 02:48:05;;;;;;;4.28;2.22;;;;;;;15.82;100.00;98744.77;1600542;88;21534;-57
2022/09/13 02:51:01;;;;;;;2.65;2.10;;;;;;;15.81;100.00;98749.23;1597799;88;21517;-57
2022/09/13 02:53:44;;;;;;;2.27;2.08;;;;;;;15.81;100.00;98751.89;1624888;86;21620;-57
2022/09/13 02:56:52;;;;;;;2.60;2.40;;;;;;;15.81;100.00;98749.23;1625793;86;21132;-57
2022/09/13 03:02:13;;;;;;;2.33;2.20;;;;;;;15.32;100.00;98766.26;1793205;79;23125;-59
2022/09/13 03:04:39;;;;;;;2.98;2.33;;;;;;;15.90;100.00;98746.36;1767904;80;21513;-59
2022/09/13 03:07:11;;;;;;;2.90;2.70;;;;;;;15.94;100.00;98742.49;1757490;80;21899;-60
2022/09/13 03:09:52;;;;;;;3.02;2.77;;;;;;;15.99;100.00;98744.77;1766900;80;21048;-59
2022/09/13 03:12:45;;;;;;;3.15;2.85;;;;;;;15.98;100.00;98745.25;1772900;80;21584;-57
2022/09/13 03:15:20;;;;;;;2.87;2.67;;;;;;;16.00;100.00;98743.81;1770078;80;21542;-58
2022/09/13 03:18:03;;;;;;;2.80;2.60;;;;;;;15.99;100.00;98744.27;1767459;79;21550;-57
2022/09/13 03:21:07;;;;;;;2.80;2.60;;;;;;;15.96;100.00;98744.05;1745475;80;22066;-58
2022/09/13 03:23:49;;;;;;;2.75;2.55;;;;;;;15.98;100.00;98748.40;1746692;80;21427;-59
2022/09/13 03:26:35;;;;;;;4.97;2.50;;;;;;;15.98;100.00;98751.05;1768000;80;21545;-58
2022/09/13 03:29:13;;;;;;;4.40;2.60;;;;;;;15.98;100.00;98747.07;1764141;80;21475;-58
2022/09/13 03:31:54;;;;;;;3.17;2.87;;;;;;;16.00;100.00;98745.97;1761325;80;21516;-58
2022/09/13 03:34:51;;;;;;;2.77;2.58;;;;;;;15.96;100.00;98742.72;1738042;80;22286;-58
2022/09/13 03:37:48;;;;;;;2.90;2.62;;;;;;;15.99;100.00;98740.78;1717986;80;21620;-58
2022/09/13 03:40:23;;;;;;;2.83;2.62;;;;;;;16.01;100.00;98741.05;1705141;81;21511;-58
2022/09/13 03:43:21;;;;;;;2.98;2.77;;;;;;;16.01;100.00;98742.38;1712721;82;21597;-58
2022/09/13 03:45:52;;;;;;;2.87;2.65;;;;;;;16.07;100.00;98743.69;1703414;81;21554;-57
2022/09/13 03:48:19;;;;;;;2.98;2.77;;;;;;;16.05;100.00;98746.45;1703363;81;21796;-58
2022/09/13 03:50:46;;;;;;;2.50;2.30;;;;;;;16.07;100.00;98755.12;1703040;82;21430;-57
2022/09/13 03:53:16;;;;;;;3.37;2.58;;;;;;;16.10;100.00;98756.69;1688228;83;21594;-58
2022/09/13 03:55:42;;;;;;;2.47;2.27;;;;;;;16.13;100.00;98761.75;1693998;83;21491;-58
2022/09/13 03:58:14;;;;;;;2.60;2.40;;;;;;;16.19;100.00;98755.12;1707994;83;21499;-58
2022/09/13 04:00:41;;;;;;;4.85;2.70;;;;;;;16.22;100.00;98758.37;1699885;82;21566;-59
2022/09/13 04:03:08;;;;;;;3.83;2.60;;;;;;;16.26;100.00;98758.97;1701262;82;21534;-58
2022/09/13 04:05:35;;;;;;;2.05;1.95;;;;;;;16.29;100.00;98768.86;1698808;83;21515;-58
2022/09/13 04:08:04;;;;;;;4.55;2.40;;;;;;;16.28;100.00;98763.17;1747476;80;21427;-58
2022/09/13 04:10:32;;;;;;;2.40;2.20;;;;;;;16.31;100.00;98763.40;1754920;80;21438;-58
2022/09/13 04:12:59;;;;;;;4.53;2.50;;;;;;;16.29;100.00;98766.66;1762680;80;21741;-58
2022/09/13 04:15:30;;;;;;;2.65;2.40;;;;;;;16.25;100.00;98766.55;1761072;80;21825;-59
2022/09/13 04:17:56;;;;;;;2.55;2.37;;;;;;;16.22;100.00;98768.98;1765718;80;20982;-59
2022/09/13 04:20:24;;;;;;;3.02;2.10;;;;;;;16.24;100.00;98770.19;1728059;80;21179;-59
2022/09/13 04:22:53;;;;;;;2.62;2.42;;;;;;;16.26;100.00;98769.58;1755334;80;21578;-61
2022/09/13 04:25:21;;;;;;;2.42;2.22;;;;;;;16.25;100.00;98770.04;1759650;80;22200;-59
2022/09/13 04:27:50;;;;;;;2.60;2.40;;;;;;;16.29;100.00;98774.16;1750352;80;20986;-59
2022/09/13 04:30:17;;;;;;;3.10;2.85;;;;;;;16.32;100.00;98769.08;1753110;80;21431;-58
2022/09/13 04:32:43;;;;;;;2.95;2.65;;;;;;;16.30;100.00;98774.98;1756454;80;21419;-59
2022/09/13 04:35:10;;;;;;;3.00;2.75;;;;;;;16.30;100.00;98775.83;1766185;80;21506;-58
2022/09/13 04:37:38;;;;;;;3.98;3.00;;;;;;;16.32;100.00;98773.05;1760837;80;21820;-58
2022/09/13 04:40:07;;;;;;;5.60;2.97;;;;;;;16.33;100.00;98775.59;1754004;80;21478;-58
2022/09/13 04:42:33;;;;;;;4.42;3.05;;;;;;;16.34;100.00;98770.62;1757881;80;21435;-59
2022/09/13 04:45:00;;;;;;;4.95;2.90;;;;;;;16.39;100.00;98777.37;1755435;80;21455;-58
2022/09/13 04:47:26;;;;;;;7.33;3.47;;;;;;;16.35;100.00;98780.78;1759878;80;21610;-58
2022/09/13 04:49:53;;;;;;;3.70;3.40;;;;;;;16.31;100.00;98780.18;1753872;80;21538;-58
2022/09/13 04:52:20;;;;;;;6.37;3.30;;;;;;;16.24;100.00;98775.00;1761736;80;21502;-59
2022/09/13 04:54:47;;;;;;;4.28;3.72;;;;;;;16.26;100.00;98776.20;1752117;80;21533;-58
2022/09/13 04:57:15;;;;;;;4.33;3.90;;;;;;;16.24;100.00;98780.80;1754648;80;21522;-58
2022/09/13 04:59:42;;;;;;;4.65;3.75;;;;;;;16.23;100.00;98776.44;1757296;80;21511;-58
2022/09/13 05:02:09;;;;;;;4.80;3.80;;;;;;;16.19;100.00;98768.38;1729874;80;21832;-58
2022/09/13 05:04:35;;;;;;;3.95;3.65;;;;;;;16.16;100.00;98765.47;1729934;81;21249;-58
2022/09/13 05:07:03;;;;;;;5.90;3.60;;;;;;;16.12;100.00;98774.18;1727543;80;21509;-58
2022/09/13 05:09:30;;;;;;;5.37;4.08;;;;;;;16.09;100.00;98774.91;1738079;81;21499;-58
2022/09/13 05:11:57;;;;;;;6.53;3.87;;;;;;;16.07;100.00;98776.84;1738695;80;21594;-57
2022/09/13 05:14:24;;;;;;;4.78;4.15;;;;;;;16.10;100.00;98777.41;1727023;81;21927;-57
2022/09/13 05:16:50;;;;;;;5.70;4.47;;;;;;;16.12;100.00;98780.81;1733111;80;21546;-58
2022/09/13 05:19:17;;;;;;;6.33;5.08;;;;;;;16.12;100.00;98777.29;1733451;81;20950;-58
2022/09/13 05:21:44;;;;;;;4.55;4.15;;;;;;;16.08;100.00;98781.98;1729986;80;21498;-59
2022/09/13 05:24:11;;;;;;;5.03;4.50;;;;;;;16.02;100.00;98786.95;1736893;81;21560;-58
2022/09/13 05:26:38;;;;;;;6.17;5.58;;;;;;;15.94;100.00;98784.41;1735741;82;21802;-58
2022/09/13 05:29:05;;;;;;;7.90;4.95;;;;;;;15.86;100.00;98789.48;1736245;82;21720;-58
2022/09/13 05:31:34;;;;;;;6.03;5.12;;;;;;;15.78;100.00;98792.36;1729366;82;21503;-58
2022/09/13 05:34:04;;;;;;;6.15;5.10;;;;;;;15.76;100.00;98791.15;1728713;81;20987;-58
2022/09/13 05:36:32;;;;;;;8.95;5.65;;;;;;;15.69;100.00;98792.09;1730145;81;21003;-58
2022/09/13 05:38:59;;;;;;;9.95;5.00;;;;;;;15.65;100.00;98797.73;1735037;82;21808;-58
2022/09/13 05:41:26;;;;;;;9.55;5.00;;;;;;;15.60;100.00;98792.80;1733890;81;26217;-58
2022/09/13 05:43:53;;;;;;;8.58;5.00;;;;;;;15.63;100.00;98798.33;1734601;82;21456;-58
2022/09/13 05:46:20;;;;;;;6.72;5.15;;;;;;;15.65;100.00;98797.27;1734039;81;21514;-58
2022/09/13 05:48:47;;;;;;;5.42;4.92;;;;;;;15.66;100.00;98806.06;1728874;81;21498;-59
2022/09/13 05:51:20;;;;;;;5.40;4.95;;;;;;;15.63;100.00;98801.81;1728174;81;21903;-59
2022/09/13 05:53:49;;;;;;;5.12;4.60;;;;;;;15.61;100.00;98807.72;1737983;81;21535;-58
2022/09/13 05:56:23;;;;;;;5.05;4.55;;;;;;;15.66;100.00;98809.54;1735289;81;21443;-58
2022/09/13 05:58:50;;;;;;;7.22;4.20;;;;;;;15.66;100.00;98806.06;1732342;81;21487;-59
2022/09/13 06:01:22;;;;;;;5.53;4.28;;;;;;;15.70;100.00;98807.50;1733834;80;21075;-58
2022/09/13 06:03:50;;;;;;;6.85;4.60;;;;;;;15.66;100.00;98814.84;1747303;81;21756;-59
2022/09/13 06:06:17;;;;;;;5.10;4.47;;;;;;;15.68;100.00;98818.21;1747781;81;21448;-59
2022/09/13 06:08:44;;;;;;;6.03;4.33;;;;;;;15.72;100.00;98817.50;1745373;80;22008;-58
2022/09/13 06:11:13;;;;;;;5.55;4.60;;;;;;;15.72;100.00;98824.96;1675899;83;21094;-59
2022/09/13 06:13:44;;;;;;;6.35;5.75;;;;;;;15.73;100.00;98825.83;1742113;81;21537;-58
2022/09/13 06:16:12;;;;;;;7.15;4.92;;;;;;;15.69;100.00;98820.37;1742629;81;22094;-60
2022/09/13 06:18:39;;;;;;;6.37;4.75;;;;;;;15.66;100.00;98826.77;1748577;81;20959;-59
2022/09/13 06:21:17;;;;;;;6.42;5.78;;;;;;;15.64;100.00;98830.02;1743418;81;21055;-59
2022/09/13 06:23:48;;;;;;;7.53;5.70;;;;;;;15.62;100.00;98832.44;1732878;81;21579;-59
2022/09/13 06:26:22;;;;;;;5.17;4.72;;;;;;;15.50;100.00;98829.76;1744025;81;21491;-58
2022/09/13 06:28:51;;;;;;;5.17;4.67;;;;;;;15.47;100.00;98839.25;1748030;81;21801;-58
2022/09/13 06:31:20;;;;;;;6.20;5.60;;;;;;;15.45;100.00;98842.50;1738955;81;21407;-59
2022/09/13 06:33:47;;;;;;;5.87;5.25;;;;;;;15.49;100.00;98840.46;1745448;81;21552;-58
2022/09/13 06:36:18;;;;;;;5.73;5.20;;;;;;;15.49;100.00;98849.73;1738690;81;21559;-59
2022/09/13 06:38:47;;;;;;;6.75;4.87;;;;;;;15.47;100.00;98843.22;1743131;81;21526;-59
2022/09/13 06:41:19;;;;;;;9.38;5.75;;;;;;;15.49;100.00;98847.09;1740275;81;21881;-59
2022/09/13 06:43:47;;;;;;;5.67;5.05;;;;;;;15.52;100.00;98846.38;1731266;81;21518;-59
2022/09/13 06:46:17;;;;;;;5.92;5.33;;;;;;;15.50;100.00;98841.67;1746636;81;21542;-60
2022/09/13 06:48:44;;;;;;;5.33;4.83;;;;;;;15.52;100.00;98834.45;1735549;81;21117;-58
2022/09/13 06:51:14;;;;;;;5.50;4.93;;;;;;;15.57;100.00;98842.04;1738606;81;20939;-59
2022/09/13 06:53:42;;;;;;;4.97;4.42;;;;;;;15.63;100.00;98840.73;1747977;80;21863;-58
2022/09/13 06:56:27;;;;;;;9.75;4.87;;;;;;;15.64;100.00;98845.08;1749500;81;21426;-59
2022/09/13 06:58:56;;;;;;;7.10;5.25;;;;;;;15.60;100.00;98845.80;1730480;80;21427;-58
2022/09/13 07:01:29;;;;;;;6.55;4.50;;;;;;;15.58;100.00;98849.87;1747047;80;21697;-58
2022/09/13 07:04:08;;;;;;;5.08;4.60;;;;;;;15.50;100.00;98850.95;1755554;80;21510;-59
2022/09/13 07:06:45;;;;;;;4.60;4.20;;;;;;;15.49;100.00;98860.33;1752272;80;21808;-59
2022/09/13 07:09:16;;;;;;;;;;;;;;;15.48;100.00;98866.13;1753037;80;21538;-59
2022/09/13 07:11:42;;;;;;;4.75;4.25;;;;;;;15.44;100.00;98867.28;1749689;80;20452;-59
2022/09/13 07:14:14;;;;;;;5.00;4.53;;;;;;;15.57;100.00;98869.38;1746181;80;21530;-60
2022/09/13 07:16:41;;;;;;;7.45;4.12;;;;;;;15.57;100.00;98869.38;1753361;80;22134;-59
2022/09/13 07:19:12;;;;;;;5.67;5.10;;;;;;;15.71;100.00;98880.75;1729236;80;21846;-59
2022/09/13 07:21:39;;;;;;;4.12;3.83;;;;;;;15.77;100.00;98881.64;1736961;80;21045;-59
2022/09/13 07:24:09;;;;;;;6.12;4.42;;;;;;;15.81;100.00;98881.76;1741422;80;21538;-60
2022/09/13 07:26:36;;;;;;;4.53;4.22;;;;;;;15.84;100.00;98878.02;1740304;80;21511;-60
2022/09/13 07:29:05;;;;;;;5.08;4.42;;;;;;;15.90;100.00;98878.41;1745932;80;20993;-59
2022/09/13 07:31:35;;;;;;;5.47;4.97;;;;;;;15.86;100.00;98869.01;1752071;80;21829;-59
2022/09/13 07:34:06;;;;;;;4.78;4.37;;;;;;;15.79;100.00;98873.08;1758976;80;21522;-59
2022/09/13 07:36:35;;;;;;;5.53;5.03;;;;;;;15.75;100.00;98872.96;1748413;80;21032;-59
2022/09/13 07:39:03;;;;;;;5.28;4.87;;;;;;;15.72;100.00;98871.83;1745666;80;21479;-60
2022/09/13 07:41:30;;;;;;;5.72;5.00;;;;;;;15.67;100.00;98872.65;1741334;80;21597;-60
2022/09/13 07:43:57;;;;;;;6.20;5.67;;;;;;;15.67;100.00;98869.55;1707839;82;21820;-60
2022/09/13 07:46:27;;;;;;;6.15;5.25;;;;;;;15.74;100.00;98872.09;1749719;80;21424;-60
2022/09/13 07:48:55;;;;;;;5.35;4.95;;;;;;;15.76;100.00;98874.17;1747975;80;21108;-61
2022/09/13 07:51:24;;;;;;;5.75;4.60;;;;;;;15.76;100.00;98875.50;1750420;80;21502;-61
2022/09/13 07:53:55;;;;;;;5.45;4.95;;;;;;;15.77;100.00;98872.36;1755725;80;21525;-61
2022/09/13 07:56:26;;;;;;;7.03;5.17;;;;;;;15.84;100.00;98874.91;1752500;80;21925;-60
2022/09/13 07:58:56;;;;;;;6.60;5.90;;;;;;;15.93;100.00;98874.66;1744908;80;21404;-60
2022/09/13 08:01:35;;;;;;;6.62;5.20;;;;;;;16.01;100.00;98871.41;1755356;80;21475;-60
2022/09/13 08:04:04;;;;;;;5.95;5.00;;;;;;;16.08;100.00;98863.36;1730949;80;21517;-60
2022/09/13 08:06:32;;;;;;;5.50;5.00;;;;;;;16.10;100.00;98864.08;1729944;80;21537;-60
2022/09/13 08:08:59;;;;;;;;;;;;;;;16.14;100.00;98860.22;1737921;80;21828;-60
2022/09/13 08:11:32;;;;;;;5.72;5.25;;;;;;;16.21;100.00;98863.24;1725427;80;20441;-60
2022/09/13 08:13:59;;;;;;;5.53;5.03;;;;;;;16.29;100.00;98861.69;1729885;80;21616;-61
2022/09/13 08:16:27;;;;;;;7.58;4.72;;;;;;;16.36;100.00;98856.72;1730509;82;21481;-59
2022/09/13 08:18:55;;;;;;;5.78;5.25;;;;;;;16.35;100.00;98851.91;1738236;80;21782;-60
2022/09/13 08:21:23;;;;;;;6.17;5.55;;;;;;;16.38;100.00;98849.48;1728307;80;22223;-60
2022/09/13 08:23:51;;;;;;;5.47;5.03;;;;;;;16.44;100.00;98846.83;1727174;80;21522;-60
2022/09/13 08:26:18;;;;;;;6.90;5.50;;;;;;;16.47;100.00;98847.43;1731200;80;21783;-60
2022/09/13 08:28:45;;;;;;;6.60;5.10;;;;;;;16.52;100.00;98842.61;1731091;80;21550;-60
2022/09/13 08:31:15;;;;;;;7.45;5.37;;;;;;;16.57;100.00;98849.34;1739546;80;22085;-60
2022/09/13 08:33:44;;;;;;;5.78;5.10;;;;;;;16.64;100.00;98844.75;1733819;80;21948;-61
2022/09/13 08:36:11;;;;;;;5.30;4.75;;;;;;;16.68;100.00;98846.19;1744405;80;21535;-61
2022/09/13 08:38:37;;;;;;;5.75;5.25;;;;;;;16.73;100.00;98841.36;1736940;80;21008;-61
2022/09/13 08:41:44;;;;;;;5.85;5.17;;;;;;;16.74;100.00;98846.17;1732159;80;21492;-61
2022/09/13 08:44:31;;;;;;;7.40;5.63;;;;;;;16.77;100.00;98840.63;1735234;80;21501;-61
2022/09/13 08:47:12;;;;;;;7.58;5.08;;;;;;;16.80;100.00;98846.16;1729109;80;27224;-61
2022/09/13 08:49:43;;;;;;;6.60;5.35;;;;;;;16.78;100.00;98846.28;1732320;80;21556;-67
2022/09/13 08:52:36;;;;;;;5.42;4.90;;;;;;;16.74;100.00;98844.38;1746001;80;21549;-64
2022/09/13 08:55:20;;;;;;;11.53;5.22;;;;;;;16.73;100.00;98844.02;1736871;80;21511;-64
2022/09/13 08:57:56;;;;;;;5.78;5.20;;;;;;;16.70;100.00;98837.61;1722633;80;21747;-63
2022/09/13 09:00:28;;;;;;;6.30;5.03;;;;;;;16.73;100.00;98835.21;1708566;80;21721;-64
2022/09/13 09:03:26;;;;;;;6.37;5.78;;;;;;;16.67;100.00;98837.88;1742531;80;21403;-65
2022/09/13 09:05:54;;;;;;;6.12;5.53;;;;;;;16.61;100.00;98839.67;1736387;81;21502;-64
2022/09/13 09:08:34;;;;;;;5.87;5.37;;;;;;;16.48;100.00;98837.65;1739271;80;21458;-65
2022/09/13 09:11:06;;;;;;;7.08;5.55;;;;;;;16.47;100.00;98836.81;1736813;80;21526;-64
2022/09/13 09:13:53;;;;;;;6.17;5.37;;;;;;;16.49;100.00;98841.52;1734821;81;21876;-63
2022/09/13 09:16:44;;;;;;;5.97;5.37;;;;;;;16.47;100.00;98842.62;1745887;80;21529;-67
2022/09/13 09:19:36;;;;;;;5.72;5.33;;;;;;;16.50;100.00;98847.66;1742724;80;21494;-65
2022/09/13 09:22:06;;;;;;;6.20;5.60;;;;;;;16.48;100.00;98844.28;1750370;80;21053;-64
2022/09/13 09:24:35;;;;;;;6.67;5.78;;;;;;;16.42;100.00;98847.44;1734476;80;21473;-63
2022/09/13 09:27:02;;;;;;;6.25;5.65;;;;;;;16.41;100.00;98843.11;1741337;80;21896;-65
2022/09/13 09:29:31;;;;;;;11.70;5.33;;;;;;;16.41;100.00;98843.11;1711035;81;21550;-65
2022/09/13 09:32:23;;;;;;;6.97;5.55;;;;;;;16.45;100.00;98844.06;1734401;81;22168;-65
2022/09/13 09:35:32;;;;;;;6.33;5.72;;;;;;;16.51;100.00;98840.91;1742679;80;21577;-65
2022/09/13 09:38:30;;;;;;;7.60;6.00;;;;;;;16.59;100.00;98844.77;1740400;80;21513;-64
2022/09/13 09:41:04;;;;;;;6.08;5.58;;;;;;;16.66;100.00;98840.16;1739181;80;21592;-64
2022/09/13 09:43:38;;;;;;;5.90;5.28;;;;;;;16.65;100.00;98840.28;1741972;80;21609;-67
2022/09/13 09:46:06;;;;;;;11.35;5.78;;;;;;;16.66;100.00;98839.32;1741361;80;21600;-59
2022/09/13 09:48:38;;;;;;;6.20;5.60;;;;;;;16.68;100.00;98836.89;1745068;80;20990;-60
2022/09/13 09:51:05;;;;;;;7.40;5.42;;;;;;;16.71;100.00;98834.00;1738232;80;21546;-59
2022/09/13 09:53:34;;;;;;;6.58;5.35;;;;;;;16.66;100.00;98841.48;1742780;81;22089;-60
2022/09/13 09:56:06;;;;;;;9.23;6.00;;;;;;;16.64;100.00;98831.97;1737150;81;21656;-60
2022/09/13 09:58:42;;;;;;;6.40;5.55;;;;;;;16.62;100.00;98830.77;1726060;81;21589;-60
2022/09/13 10:01:25;;;;;;;6.55;5.53;;;;;;;16.55;100.00;98833.05;1747488;80;21770;-60
2022/09/13 10:04:13;;;;;;;6.37;5.70;;;;;;;16.46;100.00;98831.16;1741681;80;21652;-60
2022/09/13 10:06:41;;;;;;;6.00;5.42;;;;;;;16.38;100.00;98837.55;1720186;80;21048;-60
2022/09/13 10:09:19;;;;;;;5.65;4.90;;;;;;;16.43;100.00;98835.37;1739620;81;21407;-62
2022/09/13 10:11:58;;;;;;;6.83;5.53;;;;;;;16.51;100.00;98838.25;1746742;80;20970;-60
2022/09/13 10:14:47;;;;;;;6.55;4.70;;;;;;;16.51;100.00;98834.77;1738558;80;21554;-60
2022/09/13 10:17:26;;;;;;;6.67;5.00;;;;;;;16.45;100.00;98823.33;1712947;81;21606;-58
2022/09/13 10:20:03;;;;;;;6.92;5.03;;;;;;;16.37;100.00;98829.25;1714684;81;21604;-60
2022/09/13 10:22:31;;;;;;;7.65;5.78;;;;;;;16.34;100.00;98836.11;1726226;81;21562;-59
2022/09/13 10:25:23;;;;;;;;;;;;;;;16.27;100.00;98836.23;1707098;81;21474;-60
2022/09/13 10:27:55;;;;;;;5.92;5.20;;;;;;;16.19;100.00;98838.16;1714236;81;20454;-59
2022/09/13 10:30:31;;;;;;;5.95;5.45;;;;;;;16.13;100.00;98833.35;1711214;81;21513;-60
2022/09/13 10:32:58;;;;;;;5.42;4.97;;;;;;;16.08;100.00;98835.02;1712720;81;21796;-59
2022/09/13 10:35:25;;;;;;;6.87;4.40;;;;;;;16.15;100.00;98838.88;1707059;81;21532;-59
2022/09/13 10:37:51;;;;;;;5.78;4.90;;;;;;;16.14;100.00;98841.19;1706832;81;21467;-59
2022/09/13 10:40:33;;;;;;;8.73;5.00;;;;;;;16.09;100.00;98846.49;1716436;81;22151;-59
2022/09/13 10:43:03;;;;;;;5.00;4.60;;;;;;;16.10;100.00;98851.66;1703802;81;20959;-58
2022/09/13 10:45:31;;;;;;;4.80;4.28;;;;;;;16.03;100.00;98839.00;1709552;81;21837;-57
2022/09/13 10:48:11;;;;;;;6.15;4.72;;;;;;;15.91;100.00;98850.92;1709691;81;21506;-58
2022/09/13 10:50:38;;;;;;;5.42;4.90;;;;;;;15.87;100.00;98854.77;1710531;81;20994;-58
2022/09/13 10:53:05;;;;;;;8.00;4.80;;;;;;;15.87;100.00;98849.47;1707642;81;21510;-58
2022/09/13 10:55:36;;;;;;;9.83;4.75;;;;;;;15.82;100.00;98854.27;1669240;83;21517;-59
2022/09/13 10:58:08;;;;;;;5.12;4.50;;;;;;;15.81;100.00;98850.45;1712066;81;21871;-59
2022/09/13 11:00:55;;;;;;;5.20;4.33;;;;;;;15.87;100.00;98857.42;1701735;81;21564;-59
2022/09/13 11:03:51;;;;;;;5.87;4.30;;;;;;;15.92;100.00;98859.25;1667625;81;28802;-59
2022/09/13 11:06:24;;;;;;;4.80;3.80;;;;;;;15.96;100.00;98862.51;1712360;81;21455;-59
2022/09/13 11:09:16;;;;;;;5.62;3.83;;;;;;;15.90;100.00;98858.52;1706721;81;21539;-58
2022/09/13 11:12:03;;;;;;;7.00;4.25;;;;;;;15.87;100.00;98856.59;1705451;81;21844;-58
2022/09/13 11:14:50;;;;;;;5.47;4.22;;;;;;;15.85;100.00;98855.86;1712238;81;21557;-57
2022/09/13 11:17:34;;;;;;;8.98;3.60;;;;;;;15.78;100.00;98847.53;1715556;81;21507;-57
2022/09/13 11:20:26;;;;;;;6.75;3.95;;;;;;;15.70;100.00;98848.09;1709919;81;21543;-57
2022/09/13 11:23:10;;;;;;;5.55;3.75;;;;;;;15.79;100.00;98851.05;1733149;81;21415;-57
2022/09/13 11:25:58;;;;;;;6.00;3.77;;;;;;;15.85;100.00;98851.40;1673642;81;21886;-59
2022/09/13 11:28:36;;;;;;;4.62;3.45;;;;;;;15.88;100.00;98856.48;1704288;81;21515;-57
2022/09/13 11:31:38;;;;;;;4.22;3.80;;;;;;;15.93;100.00;98854.78;1711369;81;21530;-58
2022/09/13 11:34:44;;;;;;;7.97;4.50;;;;;;;16.05;100.00;98853.84;1709769;81;21529;-57
2022/09/13 11:37:20;;;;;;;6.80;4.17;;;;;;;16.08;100.00;98852.25;1710606;81;21628;-59
2022/09/13 11:40:12;;;;;;;5.60;4.15;;;;;;;16.10;100.00;98849.00;1711056;81;21493;-57
2022/09/13 11:43:02;;;;;;;4.87;4.37;;;;;;;16.16;100.00;98846.34;1700483;81;21430;-57
2022/09/13 11:45:30;;;;;;;7.58;4.60;;;;;;;16.14;100.00;98849.15;1704244;81;21498;-58
2022/09/13 11:48:28;;;;;;;7.72;5.03;;;;;;;16.10;100.00;98849.48;1712008;81;21636;-58
2022/09/13 11:51:04;;;;;;;7.60;4.90;;;;;;;16.13;100.00;98848.77;1710768;81;21617;-57
2022/09/13 11:53:51;;;;;;;6.47;3.92;;;;;;;16.15;100.00;98846.84;1718500;81;22021;-56
2022/09/13 11:56:31;;;;;;;5.03;4.53;;;;;;;16.14;100.00;98850.47;1713438;81;27190;-57
2022/09/13 11:59:14;;;;;;;5.55;4.87;;;;;;;16.19;100.00;98853.23;1706576;81;21518;-58
2022/09/13 12:01:51;;;;;;;5.40;4.83;;;;;;;16.25;100.00;98852.75;1684820;81;21518;-58
2022/09/13 12:04:36;;;;;;;5.72;4.53;;;;;;;16.23;100.00;98852.86;1654546;84;21585;-58